createdAt,value
2022-08-28T00:00:30.671Z,3.22
2022-08-28T00:02:58.658Z,3.05
2022-08-28T00:05:30.421Z,3.10
2022-08-28T00:07:59.041Z,2.92
2022-08-28T00:10:30.450Z,2.88
2022-08-28T00:12:58.226Z,3.28
2022-08-28T00:15:36.747Z,3.10
2022-08-28T00:18:06.422Z,3.35
2022-08-28T00:20:35.590Z,2.90
2022-08-28T00:23:04.020Z,2.97
2022-08-28T00:25:33.182Z,2.75
2022-08-28T00:28:09.135Z,2.83
2022-08-28T00:30:51.093Z,3.15
2022-08-28T00:33:27.420Z,2.53
2022-08-28T00:35:55.675Z,2.90
2022-08-28T00:38:25.721Z,2.50
2022-08-28T00:40:57.845Z,2.20
2022-08-28T00:43:34.934Z,2.25
2022-08-28T00:46:06.040Z,2.30
2022-08-28T00:48:33.660Z,2.30
2022-08-28T00:51:20.983Z,2.20
2022-08-28T00:53:48.702Z,2.00
2022-08-28T00:56:18.863Z,2.30
2022-08-28T00:58:48.445Z,2.15
2022-08-28T01:01:16.107Z,2.40
2022-08-28T01:03:44.863Z,2.40
2022-08-28T01:06:15.749Z,2.00
2022-08-28T01:08:50.447Z,2.00
2022-08-28T01:11:19.224Z,2.03
2022-08-28T01:13:48.806Z,1.98
2022-08-28T01:16:18.930Z,2.35
2022-08-28T01:18:47.645Z,2.10
2022-08-28T01:21:29.632Z,2.22
2022-08-28T01:24:17.081Z,2.20
2022-08-28T01:26:44.470Z,2.20
2022-08-28T01:29:12.845Z,2.55
2022-08-28T01:31:41.761Z,2.08
2022-08-28T01:34:13.146Z,2.17
2022-08-28T01:36:41.299Z,2.22
2022-08-28T01:39:18.562Z,2.22
2022-08-28T01:41:53.200Z,2.10
2022-08-28T01:44:25.327Z,2.20
2022-08-28T01:46:55.530Z,2.20
2022-08-28T01:49:24.831Z,2.35
2022-08-28T01:51:52.383Z,2.45
2022-08-28T01:54:22.300Z,2.38
2022-08-28T01:59:27.441Z,2.60
2022-08-28T02:01:55.374Z,2.63
2022-08-28T02:04:25.892Z,2.60
2022-08-28T02:07:00.182Z,2.58
2022-08-28T02:09:27.413Z,2.78
2022-08-28T02:11:55.014Z,2.92
2022-08-28T02:14:22.708Z,3.03
2022-08-28T02:16:51.241Z,3.20
2022-08-28T02:19:18.521Z,3.22
2022-08-28T02:21:45.850Z,3.38
2022-08-28T02:24:13.138Z,3.33
2022-08-28T02:26:40.415Z,3.17
2022-08-28T02:29:07.665Z,3.30
2022-08-28T02:31:35.244Z,2.92
2022-08-28T02:34:02.471Z,3.30
2022-08-28T02:36:30.147Z,3.10
2022-08-28T02:38:57.984Z,3.33
2022-08-28T02:41:26.046Z,3.78
2022-08-28T02:43:53.418Z,3.53
2022-08-28T02:46:20.734Z,3.60
2022-08-28T02:48:48.032Z,3.75
2022-08-28T02:51:15.361Z,3.63
2022-08-28T02:53:43.544Z,3.95
2022-08-28T02:56:11.004Z,4.10
2022-08-28T02:58:40.461Z,4.10
2022-08-28T03:01:11.461Z,4.35
2022-08-28T03:03:40.914Z,4.83
2022-08-28T03:06:12.212Z,5.15
2022-08-28T03:08:42.009Z,4.63
2022-08-28T03:11:09.600Z,4.68
2022-08-28T03:13:36.863Z,4.60
2022-08-28T03:16:05.156Z,4.40
2022-08-28T03:18:33.325Z,4.38
2022-08-28T03:21:00.952Z,4.50
2022-08-28T03:23:28.479Z,4.55
2022-08-28T03:26:00.185Z,4.72
2022-08-28T03:28:41.388Z,4.82
2022-08-28T03:31:18.157Z,4.80
2022-08-28T03:33:46.811Z,5.30
2022-08-28T03:36:21.552Z,5.85
2022-08-28T03:38:51.001Z,5.03
2022-08-28T03:41:21.684Z,5.55
2022-08-28T03:43:49.458Z,5.18
2022-08-28T03:46:21.063Z,4.95
2022-08-28T03:48:48.497Z,4.85
2022-08-28T03:51:27.978Z,5.00
2022-08-28T03:54:00.294Z,5.07
2022-08-28T03:56:30.571Z,4.75
2022-08-28T03:59:01.164Z,4.65
2022-08-28T04:01:29.277Z,4.90
2022-08-28T04:03:57.173Z,4.90
2022-08-28T04:06:24.644Z,4.88
2022-08-28T04:08:51.751Z,4.82
2022-08-28T04:11:19.108Z,4.93
2022-08-28T04:13:46.731Z,4.72
2022-08-28T04:16:19.149Z,5.25
2022-08-28T04:18:49.109Z,5.07
2022-08-28T04:21:22.526Z,4.28
2022-08-28T04:23:50.483Z,4.80
2022-08-28T04:26:21.831Z,4.38
2022-08-28T04:28:50.531Z,5.28
2022-08-28T04:31:31.819Z,5.05
2022-08-28T04:34:02.000Z,4.90
2022-08-28T04:36:29.903Z,5.32
2022-08-28T04:38:58.900Z,5.07
2022-08-28T04:41:26.787Z,5.10
2022-08-28T04:43:56.877Z,5.07
2022-08-28T04:46:24.909Z,4.55
2022-08-28T04:48:52.263Z,5.05
2022-08-28T04:51:20.429Z,4.95
2022-08-28T04:53:48.167Z,5.18
2022-08-28T04:56:16.010Z,5.65
2022-08-28T04:58:44.376Z,4.75
2022-08-28T05:01:19.385Z,4.75
2022-08-28T05:03:48.663Z,5.07
2022-08-28T05:06:17.141Z,4.50
2022-08-28T05:08:44.627Z,5.00
2022-08-28T05:11:33.708Z,4.25
2022-08-28T05:14:06.498Z,5.15
2022-08-28T05:16:43.122Z,4.60
2022-08-28T05:19:10.789Z,4.50
2022-08-28T05:21:38.830Z,5.10
2022-08-28T05:24:07.406Z,4.60
2022-08-28T05:26:36.308Z,4.68
2022-08-28T05:29:08.747Z,4.57
2022-08-28T05:31:39.111Z,5.00
2022-08-28T05:34:07.063Z,4.93
2022-08-28T05:36:38.522Z,4.65
2022-08-28T05:39:10.277Z,4.55
2022-08-28T05:41:40.881Z,4.55
2022-08-28T05:44:12.670Z,4.53
2022-08-28T05:46:43.145Z,4.07
2022-08-28T05:49:10.846Z,4.40
2022-08-28T05:51:42.070Z,4.22
2022-08-28T05:54:10.370Z,4.60
2022-08-28T05:56:40.641Z,4.30
2022-08-28T05:59:09.672Z,4.40
2022-08-28T06:01:42.795Z,3.92
2022-08-28T06:04:15.456Z,3.67
2022-08-28T06:06:44.196Z,3.97
2022-08-28T06:09:18.056Z,4.35
2022-08-28T06:11:46.385Z,3.90
2022-08-28T06:14:17.920Z,3.95
2022-08-28T06:16:52.600Z,3.53
2022-08-28T06:19:23.167Z,3.95
2022-08-28T06:21:54.379Z,3.80
2022-08-28T06:24:21.605Z,3.67
2022-08-28T06:26:48.750Z,3.42
2022-08-28T06:29:21.231Z,3.90
2022-08-28T06:31:58.779Z,3.88
2022-08-28T06:34:28.053Z,3.83
2022-08-28T06:36:55.471Z,4.00
2022-08-28T06:39:24.110Z,4.20
2022-08-28T06:41:51.419Z,3.95
2022-08-28T06:44:21.503Z,3.67
2022-08-28T06:46:52.368Z,3.33
2022-08-28T06:49:21.990Z,3.60
2022-08-28T06:51:49.592Z,4.57
2022-08-28T06:54:22.235Z,4.30
2022-08-28T06:56:52.002Z,3.97
2022-08-28T06:59:19.586Z,3.78
2022-08-28T07:01:48.398Z,3.70
2022-08-28T07:04:15.797Z,3.78
2022-08-28T07:06:53.864Z,3.95
2022-08-28T07:09:23.326Z,3.47
2022-08-28T07:11:51.435Z,3.60
2022-08-28T07:14:18.718Z,3.70
2022-08-28T07:16:46.087Z,3.83
2022-08-28T07:19:14.265Z,3.78
2022-08-28T07:21:44.714Z,3.72
2022-08-28T07:24:14.847Z,3.53
2022-08-28T07:26:44.449Z,3.50
2022-08-28T07:29:12.406Z,3.65
2022-08-28T07:31:46.579Z,3.53
2022-08-28T07:34:15.707Z,3.42
2022-08-28T07:36:43.879Z,3.55
2022-08-28T07:39:14.088Z,3.35
2022-08-28T07:41:43.150Z,3.40
2022-08-28T07:44:32.996Z,3.75
2022-08-28T07:47:06.134Z,3.75
2022-08-28T07:49:37.064Z,3.40
2022-08-28T07:52:07.038Z,3.90
2022-08-28T07:54:36.274Z,4.13
2022-08-28T07:57:10.074Z,3.70
2022-08-28T07:59:39.183Z,3.95
2022-08-28T08:02:07.193Z,4.05
2022-08-28T08:04:35.320Z,4.20
2022-08-28T08:07:04.358Z,4.28
2022-08-28T08:09:32.304Z,3.88
2022-08-28T08:12:00.493Z,3.85
2022-08-28T08:14:28.122Z,4.35
2022-08-28T08:16:55.189Z,4.43
2022-08-28T08:19:22.644Z,4.43
2022-08-28T08:21:54.923Z,4.45
2022-08-28T08:24:26.826Z,4.18
2022-08-28T08:27:00.959Z,4.10
2022-08-28T08:29:36.266Z,3.88
2022-08-28T08:32:10.507Z,3.80
2022-08-28T08:34:43.182Z,4.43
2022-08-28T08:37:12.757Z,4.05
2022-08-28T08:39:43.386Z,4.43
2022-08-28T08:42:28.455Z,3.85
2022-08-28T08:45:00.041Z,6.55
2022-08-28T08:47:43.510Z,5.03
2022-08-28T08:50:20.997Z,4.40
2022-08-28T08:53:09.625Z,4.70
2022-08-28T08:55:48.406Z,4.47
2022-08-28T08:58:38.746Z,4.53
2022-08-28T09:01:21.191Z,4.20
2022-08-28T09:04:16.746Z,4.10
2022-08-28T09:07:03.290Z,4.15
2022-08-28T09:09:33.788Z,4.50
2022-08-28T09:12:10.599Z,4.63
2022-08-28T09:15:06.000Z,4.53
2022-08-28T09:17:41.529Z,5.03
2022-08-28T09:20:14.062Z,4.32
2022-08-28T09:22:47.509Z,4.38
2022-08-28T09:25:50.845Z,4.40
2022-08-28T09:28:36.872Z,4.13
2022-08-28T09:31:19.507Z,4.07
2022-08-28T09:33:51.429Z,4.25
2022-08-28T09:36:36.262Z,3.85
2022-08-28T09:39:25.673Z,4.05
2022-08-28T09:42:41.843Z,4.05
2022-08-28T09:45:23.865Z,4.05
2022-08-28T09:47:55.579Z,4.53
2022-08-28T09:50:39.652Z,4.65
2022-08-28T09:53:09.800Z,4.35
2022-08-28T09:55:56.766Z,4.25
2022-08-28T09:58:35.723Z,4.20
2022-08-28T10:01:14.252Z,4.72
2022-08-28T10:04:08.177Z,4.80
2022-08-28T10:06:38.052Z,4.90
2022-08-28T10:09:05.401Z,5.00
2022-08-28T10:12:01.965Z,4.63
2022-08-28T10:15:08.367Z,4.85
2022-08-28T10:18:32.953Z,4.60
2022-08-28T10:21:25.936Z,4.30
2022-08-28T10:24:24.739Z,4.63
2022-08-28T10:27:19.377Z,5.47
2022-08-28T10:29:49.955Z,4.55
2022-08-28T10:33:07.714Z,5.13
2022-08-28T10:36:03.853Z,4.95
2022-08-28T10:39:40.937Z,4.13
2022-08-28T10:42:08.079Z,4.32
2022-08-28T10:44:49.743Z,4.70
2022-08-28T10:47:21.500Z,4.07
2022-08-28T10:49:53.705Z,4.13
2022-08-28T10:52:41.956Z,4.75
2022-08-28T10:55:19.758Z,4.50
2022-08-28T10:57:57.932Z,4.60
2022-08-28T11:00:27.926Z,5.00
2022-08-28T11:03:05.108Z,5.22
2022-08-28T11:05:53.348Z,5.50
2022-08-28T11:08:33.454Z,5.07
2022-08-28T11:11:04.446Z,5.65
2022-08-28T11:13:45.939Z,5.32
2022-08-28T11:16:42.232Z,4.82
2022-08-28T11:19:32.171Z,3.95
2022-08-28T11:22:27.436Z,3.72
2022-08-28T11:25:26.287Z,3.47
2022-08-28T11:28:23.984Z,2.88
2022-08-28T11:31:06.329Z,2.42
2022-08-28T11:33:48.470Z,2.13
2022-08-28T11:38:46.879Z,2.00
2022-08-28T11:41:22.759Z,1.98
2022-08-28T11:44:09.679Z,2.38
2022-08-28T11:46:42.506Z,1.67
2022-08-28T11:49:34.010Z,2.10
2022-08-28T11:52:25.402Z,1.98
2022-08-28T11:55:20.710Z,1.98
2022-08-28T12:00:57.979Z,2.00
2022-08-28T12:03:41.838Z,1.95
2022-08-28T12:06:10.742Z,2.20
2022-08-28T12:08:59.181Z,2.53
2022-08-28T12:11:41.853Z,2.20
2022-08-28T12:14:27.970Z,2.47
2022-08-28T12:17:05.921Z,2.80
2022-08-28T12:19:51.210Z,2.78
2022-08-28T12:22:37.661Z,2.95
2022-08-28T12:25:15.915Z,3.00
2022-08-28T12:27:43.610Z,2.60
2022-08-28T12:30:12.237Z,2.35
2022-08-28T12:32:57.178Z,2.90
2022-08-28T12:35:29.877Z,2.97
2022-08-28T12:37:57.456Z,2.60
2022-08-28T12:40:42.873Z,2.63
2022-08-28T12:43:15.183Z,2.42
2022-08-28T12:45:50.678Z,2.58
2022-08-28T12:48:29.718Z,3.08
2022-08-28T12:51:08.114Z,2.88
2022-08-28T12:53:50.853Z,3.40
2022-08-28T12:56:22.071Z,2.67
2022-08-28T12:58:50.819Z,2.83
2022-08-28T13:01:34.240Z,3.15
2022-08-28T13:04:27.663Z,3.10
2022-08-28T13:07:18.400Z,3.20
2022-08-28T13:09:52.649Z,3.35
2022-08-28T13:12:34.847Z,3.25
2022-08-28T13:15:46.886Z,3.22
2022-08-28T13:18:44.152Z,3.40
2022-08-28T13:21:28.645Z,3.58
2022-08-28T13:24:24.056Z,3.97
2022-08-28T13:27:17.256Z,3.83
2022-08-28T13:30:20.158Z,3.70
2022-08-28T13:33:17.642Z,3.55
2022-08-28T13:35:45.252Z,3.67
2022-08-28T13:38:19.683Z,3.15
2022-08-28T13:41:04.450Z,3.22
2022-08-28T13:43:46.154Z,3.28
2022-08-28T13:46:14.161Z,3.20
2022-08-28T13:48:41.256Z,3.45
2022-08-28T13:51:14.255Z,3.17
2022-08-28T13:53:49.713Z,2.75
2022-08-28T13:56:17.551Z,2.90
2022-08-28T13:58:44.849Z,2.58
2022-08-28T14:01:30.622Z,2.80
2022-08-28T14:04:07.854Z,2.90
2022-08-28T14:06:34.960Z,2.65
2022-08-28T14:09:02.204Z,2.80
2022-08-28T14:11:29.498Z,2.40
2022-08-28T14:13:56.763Z,2.08
2022-08-28T14:16:25.543Z,2.00
2022-08-28T14:18:53.819Z,1.83
2022-08-28T14:21:22.360Z,1.80
2022-08-28T14:23:50.570Z,1.98
2022-08-28T14:26:17.729Z,2.13
2022-08-28T14:28:45.292Z,2.30
2022-08-28T14:31:14.778Z,2.63
2022-08-28T14:33:45.370Z,2.95
2022-08-28T14:36:27.349Z,2.63
2022-08-28T14:39:01.750Z,3.28
2022-08-28T14:41:31.369Z,3.10
2022-08-28T14:44:01.196Z,3.50
2022-08-28T14:46:31.821Z,3.47
2022-08-28T14:49:10.003Z,3.22
2022-08-28T14:51:39.848Z,3.10
2022-08-28T14:54:08.755Z,3.38
2022-08-28T14:56:45.612Z,3.53
2022-08-28T14:59:25.368Z,3.15
2022-08-28T15:01:55.624Z,2.63
2022-08-28T15:04:28.473Z,2.90
2022-08-28T15:07:00.771Z,2.90
2022-08-28T15:09:28.665Z,3.13
2022-08-28T15:11:56.369Z,3.40
2022-08-28T15:14:23.932Z,3.38
2022-08-28T15:16:51.200Z,3.33
2022-08-28T15:19:18.922Z,3.17
2022-08-28T15:21:53.776Z,2.90
2022-08-28T15:24:25.780Z,2.20
2022-08-28T15:26:53.615Z,2.00
2022-08-28T15:29:21.171Z,1.95
2022-08-28T15:31:49.638Z,1.60
2022-08-28T15:34:25.468Z,1.90
2022-08-28T15:36:56.059Z,1.58
2022-08-28T15:39:47.433Z,1.42
2022-08-28T15:42:15.645Z,1.42
2022-08-28T15:44:43.688Z,1.10
2022-08-28T15:47:12.633Z,0.80
2022-08-28T15:49:48.560Z,0.82
2022-08-28T15:52:18.803Z,1.17
2022-08-28T15:54:46.544Z,1.40
2022-08-28T15:57:13.795Z,1.25
2022-08-28T15:59:49.859Z,1.27
2022-08-28T16:02:24.155Z,1.10
2022-08-28T16:04:53.145Z,1.08
2022-08-28T16:07:22.968Z,1.15
2022-08-28T16:09:50.820Z,1.20
2022-08-28T16:12:18.376Z,1.17
2022-08-28T16:14:45.619Z,1.42
2022-08-28T16:17:13.209Z,1.50
2022-08-28T16:19:42.333Z,1.13
2022-08-28T16:22:11.666Z,1.17
2022-08-28T16:24:39.025Z,1.20
2022-08-28T16:27:08.706Z,1.38
2022-08-28T16:29:38.108Z,1.40
2022-08-28T16:32:07.026Z,1.05
2022-08-28T16:34:34.991Z,1.20
2022-08-28T16:37:04.250Z,1.35
2022-08-28T16:39:31.356Z,1.10
2022-08-28T16:41:59.086Z,1.20
2022-08-28T16:44:26.779Z,1.40
2022-08-28T16:46:55.898Z,1.23
2022-08-28T16:49:24.080Z,1.13
2022-08-28T16:51:51.843Z,1.27
2022-08-28T16:54:19.509Z,1.13
2022-08-28T16:56:46.869Z,1.33
2022-08-28T16:59:21.549Z,1.15
2022-08-28T17:01:53.663Z,1.38
2022-08-28T17:04:22.587Z,1.20
2022-08-28T17:06:50.108Z,1.30
2022-08-28T17:09:17.501Z,1.17
2022-08-28T17:11:52.130Z,1.23
2022-08-28T17:14:21.815Z,1.20
2022-08-28T17:16:50.752Z,1.20
2022-08-28T17:19:19.432Z,1.13
2022-08-28T17:22:05.419Z,1.23
2022-08-28T17:24:32.672Z,1.20
2022-08-28T17:27:05.213Z,1.30
2022-08-28T17:29:34.729Z,1.38
2022-08-28T17:32:02.320Z,1.33
2022-08-28T17:34:30.527Z,1.10
2022-08-28T17:36:58.153Z,1.13
2022-08-28T17:39:25.694Z,1.27
2022-08-28T17:41:52.803Z,1.60
2022-08-28T17:44:20.177Z,1.30
2022-08-28T17:46:47.463Z,1.20
2022-08-28T17:49:14.650Z,1.10
2022-08-28T17:51:43.458Z,1.35
2022-08-28T17:54:21.550Z,1.33
2022-08-28T17:56:50.217Z,1.33
2022-08-28T17:59:18.173Z,1.50
2022-08-28T18:01:46.934Z,1.50
2022-08-28T18:04:23.047Z,1.17
2022-08-28T18:06:54.230Z,1.08
2022-08-28T18:09:23.299Z,1.13
2022-08-28T18:11:52.987Z,1.15
2022-08-28T18:14:21.092Z,1.20
2022-08-28T18:16:48.483Z,1.20
2022-08-28T18:19:16.604Z,1.33
2022-08-28T18:21:44.050Z,1.38
2022-08-28T18:24:13.149Z,1.80
2022-08-28T18:26:42.832Z,1.73
2022-08-28T18:29:10.936Z,2.00
2022-08-28T18:31:38.206Z,2.70
2022-08-28T18:34:05.891Z,2.35
2022-08-28T18:36:33.899Z,2.05
2022-08-28T18:39:01.125Z,1.40
2022-08-28T18:41:34.579Z,1.92
2022-08-28T18:44:13.160Z,1.45
2022-08-28T18:46:41.127Z,2.05
2022-08-28T18:49:08.479Z,1.67
2022-08-28T18:51:35.903Z,1.45
2022-08-28T18:54:03.635Z,1.88
2022-08-28T18:56:32.529Z,2.33
2022-08-28T18:59:00.910Z,2.25
2022-08-28T19:01:29.188Z,2.10
2022-08-28T19:03:56.615Z,2.70
2022-08-28T19:06:24.689Z,1.88
2022-08-28T19:08:52.076Z,1.88
2022-08-28T19:11:19.682Z,1.20
2022-08-28T19:13:47.474Z,1.20
2022-08-28T19:16:20.592Z,1.40
2022-08-28T19:18:51.396Z,1.30
2022-08-28T19:21:20.510Z,1.48
2022-08-28T19:23:55.953Z,1.20
2022-08-28T19:26:26.138Z,1.05
2022-08-28T19:28:54.127Z,1.40
2022-08-28T19:31:21.877Z,0.98
2022-08-28T19:33:49.536Z,1.23
2022-08-28T19:36:18.631Z,0.80
2022-08-28T19:38:46.130Z,1.17
2022-08-28T19:41:14.514Z,1.10
2022-08-28T19:43:44.566Z,1.50
2022-08-28T19:46:19.640Z,1.35
2022-08-28T19:48:52.651Z,1.60
2022-08-28T19:51:24.002Z,1.60
2022-08-28T19:53:58.682Z,2.15
2022-08-28T19:56:33.560Z,2.15
2022-08-28T19:59:04.264Z,1.83
2022-08-28T20:01:37.016Z,2.20
2022-08-28T20:04:07.109Z,2.33
2022-08-28T20:06:36.778Z,2.33
2022-08-28T20:09:08.282Z,2.42
2022-08-28T20:11:39.840Z,2.28
2022-08-28T20:14:07.257Z,2.40
2022-08-28T20:16:39.852Z,1.80
2022-08-28T20:19:10.481Z,2.17
2022-08-28T20:21:42.733Z,2.45
2022-08-28T20:24:14.935Z,2.70
2022-08-28T20:26:42.518Z,2.17
2022-08-28T20:29:11.302Z,2.25
2022-08-28T20:31:41.694Z,2.40
2022-08-28T20:34:11.645Z,2.28
2022-08-28T20:36:39.383Z,2.30
2022-08-28T20:39:09.249Z,2.92
2022-08-28T20:41:38.815Z,2.10
2022-08-28T20:44:07.855Z,1.83
2022-08-28T20:46:40.967Z,2.05
2022-08-28T20:49:14.532Z,2.30
2022-08-28T20:51:53.946Z,2.10
2022-08-28T20:54:37.058Z,2.50
2022-08-28T20:57:09.449Z,2.65
2022-08-28T20:59:40.503Z,2.17
2022-08-28T21:02:15.551Z,2.35
2022-08-28T21:04:44.611Z,1.90
2022-08-28T21:07:13.741Z,2.70
2022-08-28T21:10:04.073Z,2.40
2022-08-28T21:12:28.383Z,2.30
2022-08-28T21:14:55.687Z,2.40
2022-08-28T21:17:29.424Z,2.60
2022-08-28T21:20:02.873Z,2.45
2022-08-28T21:22:31.662Z,2.15
2022-08-28T21:24:59.624Z,2.20
2022-08-28T21:27:27.383Z,1.60
2022-08-28T21:29:59.981Z,1.60
2022-08-28T21:32:29.207Z,1.58
2022-08-28T21:34:56.853Z,1.42
2022-08-28T21:37:24.619Z,1.40
2022-08-28T21:39:52.275Z,1.02
2022-08-28T21:42:21.203Z,1.38
2022-08-28T21:44:51.522Z,1.40
2022-08-28T21:47:23.052Z,1.33
2022-08-28T21:49:53.381Z,1.50
2022-08-28T21:52:24.667Z,1.83
2022-08-28T21:54:58.624Z,2.05
2022-08-28T21:57:26.604Z,2.08
2022-08-28T21:59:54.562Z,2.30
2022-08-28T22:02:22.765Z,2.15
2022-08-28T22:04:50.345Z,2.15
2022-08-28T22:07:18.964Z,2.30
2022-08-28T22:09:46.716Z,2.50
2022-08-28T22:12:13.960Z,2.42
2022-08-28T22:14:41.114Z,2.15
2022-08-28T22:17:11.553Z,2.45
2022-08-28T22:19:39.846Z,2.57
2022-08-28T22:22:27.366Z,2.45
2022-08-28T22:24:54.925Z,2.13
2022-08-28T22:27:22.271Z,2.05
2022-08-28T22:29:49.748Z,2.22
2022-08-28T22:32:17.059Z,2.17
2022-08-28T22:34:46.408Z,2.22
2022-08-28T22:37:14.081Z,1.98
2022-08-28T22:39:42.809Z,2.08
2022-08-28T22:42:10.672Z,1.50
2022-08-28T22:44:38.953Z,1.48
2022-08-28T22:47:07.383Z,1.55
2022-08-28T22:49:36.030Z,1.50
2022-08-28T22:52:10.000Z,1.98
2022-08-28T22:54:37.787Z,1.67
2022-08-28T22:57:06.071Z,1.58
2022-08-28T22:59:34.590Z,1.80
2022-08-28T23:02:03.663Z,2.08
2022-08-28T23:04:31.486Z,1.70
2022-08-28T23:06:58.688Z,1.80
2022-08-28T23:09:26.381Z,1.58
2022-08-28T23:11:53.726Z,1.80
2022-08-28T23:14:20.943Z,1.75
2022-08-28T23:16:49.262Z,1.35
2022-08-28T23:19:17.766Z,1.50
2022-08-28T23:21:45.187Z,1.40
2022-08-28T23:24:14.584Z,1.27
2022-08-28T23:26:43.539Z,1.70
2022-08-28T23:29:12.229Z,2.25
2022-08-28T23:31:39.893Z,2.20
2022-08-28T23:34:07.532Z,2.38
2022-08-28T23:36:36.706Z,2.35
2022-08-28T23:39:05.488Z,2.42
2022-08-28T23:41:33.675Z,2.47
2022-08-28T23:44:05.247Z,2.85
2022-08-28T23:46:36.620Z,2.40
2022-08-28T23:49:04.428Z,2.40
2022-08-28T23:51:32.317Z,2.30
2022-08-28T23:53:59.618Z,2.00
2022-08-28T23:56:28.064Z,2.47
2022-08-28T23:58:55.578Z,2.60
